Palermo, Italy
Current Conditions -  °F | °C
As of 3:50 AM on Saturday 29 Nov 2014 (Local Time) from LICJ Reporting Station
Clear Clear  
Wind Chill: 23°   Ceiling: Unl
Heat Index: 23°   Visibility: 6mi
Dew Point:   Wind: 15mph
Humidity: 36%   Direction: 160°SSE
Pressure: 29.85"   Gusts: NA
Location:  38.12°N, 13.36°E
Report Text: LICJ 290250Z 16013KT CAVOK 23/07 Q1011
Loading
Personal Weather Stations






























Interactive Weather Map New forecast layout! Learn more

10-Day Weather Forecast

Advertisements
Track Severe Weather on mobile